Time;durP1;ratioP1;P1;durP2;ratioP2;P2;SDS_P1;SDS_P2;PMS_P1;PMS_P2;Temp;Humidity;BMP_temperature;BMP_pressure;BME280_temperature;BME280_humidity;BME280_pressure;Samples;Min_cycle;Max_cycle;Signal;HPM_P1;HPM_P2
2024/03/07 00:00:58;;;;;;;;;;;;;;;5.06;100.00;96906.13;5044161;28;19938;-73
2024/03/07 00:03:24;;;;;;;;;;;;;;;5.04;100.00;96900.28;5044674;28;20235;-69
2024/03/07 00:05:50;;;;;;;;;;;;;;;5.02;100.00;96909.25;5043668;28;19949;-69
2024/03/07 00:08:16;;;;;;;;;;;;;;;4.99;100.00;96905.19;5044526;28;19961;-69
2024/03/07 00:10:43;;;;;;;;;;;;;;;4.95;100.00;96900.50;5044538;28;19959;-70
2024/03/07 00:13:09;;;;;;;;;;;;;;;4.93;100.00;96911.06;5043990;28;19947;-69
2024/03/07 00:15:36;;;;;;;;;;;;;;;4.93;100.00;96910.25;5026425;28;19943;-68
2024/03/07 00:18:02;;;;;;;;;;;;;;;4.93;100.00;96903.25;5041858;28;19968;-80
2024/03/07 00:20:28;;;;;;;;;;;;;;;4.94;100.00;96904.09;5042884;28;19938;-72
2024/03/07 00:22:54;;;;;;;;;;;;;;;4.92;100.00;96906.84;5044644;28;20215;-75
2024/03/07 00:25:20;;;;;;;;;;;;;;;4.90;100.00;96905.41;5043538;28;20010;-75
2024/03/07 00:27:45;;;;;;;;;;;;;;;4.89;100.00;96904.59;5026934;28;19965;-75
2024/03/07 00:30:13;;;;;;;;;;;;;;;4.88;100.00;96905.56;5044079;28;19999;-75
2024/03/07 00:32:40;;;;;;;;;;;;;;;4.88;100.00;96903.78;5043703;28;19934;-75
2024/03/07 00:35:06;;;;;;;;;;;;;;;4.88;100.00;96901.19;5043721;28;19936;-75
2024/03/07 00:37:32;;;;;;;;;;;;;;;4.88;100.00;96900.38;5056420;28;19972;-69
2024/03/07 00:39:58;;;;;;;;;;;;;;;4.87;100.00;96891.78;5064243;28;20101;-74
2024/03/07 00:42:24;;;;;;;;;;;;;;;4.87;100.00;96896.13;5063676;28;19951;-73
2024/03/07 00:44:50;;;;;;;;;;;;;;;4.85;100.00;96896.34;5063637;28;20047;-73
2024/03/07 00:47:17;;;;;;;;;;;;;;;4.85;100.00;96906.72;5064152;28;19940;-74
2024/03/07 00:49:45;;;;;;;;;;;;;;;4.84;100.00;96897.31;5063577;28;19946;-73
2024/03/07 00:52:11;;;;;;;;;;;;;;;4.84;100.00;96896.50;5064077;28;19959;-73
2024/03/07 00:54:37;;;;;;;;;;;;;;;4.85;100.00;96895.50;5065753;28;20228;-70
2024/03/07 00:57:04;;;;;;;;;;;;;;;4.84;100.00;96893.91;5049769;28;19937;-70
2024/03/07 00:59:30;;;;;;;;;;;;;;;4.84;100.00;96891.31;5067454;28;20132;-73
2024/03/07 01:01:55;;;;;;;;;;;;;;;4.83;100.00;96889.66;5068243;28;19936;-73
2024/03/07 01:04:22;;;;;;;;;;;;;;;4.82;100.00;96893.25;5067904;28;19939;-73
2024/03/07 01:06:48;;;;;;;;;;;;;;;4.80;100.00;96892.63;5049585;28;19938;-73
2024/03/07 01:09:14;;;;;;;;;;;;;;;4.77;100.00;96887.78;5049439;28;19961;-72
2024/03/07 01:11:42;;;;;;;;;;;;;;;4.74;100.00;96893.28;5067279;28;19935;-72
2024/03/07 01:14:08;;;;;;;;;;;;;;;4.71;100.00;96888.44;5049972;28;20150;-74
2024/03/07 01:16:34;;;;;;;;;;;;;;;4.68;100.00;96886.97;5067185;28;19934;-73
2024/03/07 01:19:00;;;;;;;;;;;;;;;4.66;100.00;96881.16;5067015;28;19953;-73
2024/03/07 01:21:26;;;;;;;;;;;;;;;4.64;100.00;96883.09;5049873;28;19948;-73
2024/03/07 01:23:52;;;;;;;;;;;;;;;4.61;100.00;96883.44;5067507;28;19942;-73
2024/03/07 01:26:18;;;;;;;;;;;;;;;4.57;100.00;96875.19;5067679;28;19941;-73
2024/03/07 01:28:44;;;;;;;;;;;;;;;4.55;100.00;96874.53;5066982;28;19942;-73
2024/03/07 01:31:10;;;;;;;;;;;;;;;4.54;100.00;96865.16;5049284;28;19938;-72
2024/03/07 01:33:36;;;;;;;;;;;;;;;4.52;100.00;96864.50;5067700;28;20246;-73
2024/03/07 01:36:02;;;;;;;;;;;;;;;4.50;100.00;96871.66;5067398;28;19961;-73
2024/03/07 01:38:28;;;;;;;;;;;;;;;4.46;100.00;96865.97;5066665;28;20248;-74
2024/03/07 01:40:54;;;;;;;;;;;;;;;4.43;100.00;96860.31;5066690;28;19939;-74
2024/03/07 01:43:21;;;;;;;;;;;;;;;4.39;100.00;96867.66;5066673;28;20014;-74
2024/03/07 01:45:47;;;;;;;;;;;;;;;4.36;100.00;96857.56;5066583;28;19948;-74
2024/03/07 01:48:21;;;;;;;;;;;;;;;4.36;100.00;96856.78;5067058;28;20208;-74
2024/03/07 01:50:47;;;;;;;;;;;;;;;4.32;100.00;96850.28;5067368;28;19942;-68
2024/03/07 01:53:14;;;;;;;;;;;;;;;4.26;100.00;96852.59;5048796;28;20096;-69
2024/03/07 01:55:40;;;;;;;;;;;;;;;4.23;100.00;96852.13;5066400;28;20129;-69
2024/03/07 01:58:08;;;;;;;;;;;;;;;4.19;100.00;96848.22;5049410;28;19997;-68
2024/03/07 02:00:34;;;;;;;;;;;;;;;4.14;100.00;96842.75;5049288;28;19946;-69
2024/03/07 02:03:00;;;;;;;;;;;;;;;4.10;100.00;96851.84;5049242;28;19984;-69
2024/03/07 02:05:26;;;;;;;;;;;;;;;4.05;100.00;96847.97;5065628;28;19938;-69
2024/03/07 02:07:51;;;;;;;;;;;;;;;4.02;100.00;96850.88;5048421;28;19933;-69
2024/03/07 02:10:18;;;;;;;;;;;;;;;3.99;100.00;96838.25;5066953;28;19934;-85
2024/03/07 02:12:44;;;;;;;;;;;;;;;3.96;100.00;96846.34;5049166;28;19938;-74
2024/03/07 02:15:10;;;;;;;;;;;;;;;3.93;100.00;96845.88;5048921;28;19941;-74
2024/03/07 02:17:37;;;;;;;;;;;;;;;3.90;100.00;96843.59;5032405;28;20003;-74
2024/03/07 02:20:04;;;;;;;;;;;;;;;3.88;100.00;96846.34;5031562;28;20233;-74
2024/03/07 02:22:30;;;;;;;;;;;;;;;3.85;100.00;96837.13;5048085;28;19946;-73
2024/03/07 02:24:56;;;;;;;;;;;;;;;3.85;100.00;96841.53;5048060;28;20130;-74
2024/03/07 02:27:22;;;;;;;;;;;;;;;3.83;100.00;96840.88;5066602;28;19948;-71
2024/03/07 02:29:49;;;;;;;;;;;;;;;3.82;100.00;96839.25;5066386;28;19939;-73
2024/03/07 02:32:14;;;;;;;;;;;;;;;3.77;100.00;96836.34;5032130;28;19946;-73
2024/03/07 02:34:40;;;;;;;;;;;;;;;3.76;100.00;96829.53;5032195;28;19944;-74
2024/03/07 02:37:09;;;;;;;;;;;;;;;3.73;100.00;96827.28;5048194;28;19974;-74
2024/03/07 02:39:37;;;;;;;;;;;;;;;3.68;100.00;96830.38;5065533;28;19965;-74
2024/03/07 02:42:03;;;;;;;;;;;;;;;3.63;100.00;96820.50;5047898;28;19957;-73
2024/03/07 02:44:31;;;;;;;;;;;;;;;3.60;100.00;96818.22;5031246;28;20245;-74
2024/03/07 02:46:57;;;;;;;;;;;;;;;3.56;100.00;96826.50;5048403;28;19944;-70
2024/03/07 02:49:23;;;;;;;;;;;;;;;3.50;100.00;96827.13;5047727;28;19943;-87
2024/03/07 02:51:49;;;;;;;;;;;;;;;3.43;100.00;96822.59;5065373;28;19934;-85
2024/03/07 02:54:15;;;;;;;;;;;;;;;3.38;100.00;96824.88;5047521;28;19947;-86
2024/03/07 02:56:41;;;;;;;;;;;;;;;3.37;100.00;96838.00;5046936;28;20133;-86
2024/03/07 02:59:06;;;;;;;;;;;;;;;3.35;100.00;96830.38;5031677;28;19956;-85
2024/03/07 03:01:32;;;;;;;;;;;;;;;3.36;100.00;96831.19;5065245;28;19984;-86
2024/03/07 03:03:58;;;;;;;;;;;;;;;3.35;100.00;96827.78;5065166;28;19940;-73
2024/03/07 03:06:24;;;;;;;;;;;;;;;3.33;100.00;96829.75;5065109;28;19943;-73
2024/03/07 03:08:50;;;;;;;;;;;;;;;3.31;100.00;96830.88;5064957;28;19945;-74
2024/03/07 03:11:16;;;;;;;;;;;;;;;3.31;100.00;96834.28;5065479;28;19943;-74
2024/03/07 03:13:42;;;;;;;;;;;;;;;3.31;100.00;96830.88;5065006;28;19937;-73
2024/03/07 03:16:09;;;;;;;;;;;;;;;3.32;100.00;96829.88;5031344;28;19956;-73
2024/03/07 03:18:35;;;;;;;;;;;;;;;3.32;100.00;96829.88;5064656;28;20266;-73
2024/03/07 03:21:02;;;;;;;;;;;;;;;3.35;100.00;96825.19;5064807;28;19935;-73
2024/03/07 03:23:30;;;;;;;;;;;;;;;3.38;100.00;96829.25;5047738;28;19941;-69
2024/03/07 03:25:56;;;;;;;;;;;;;;;3.43;100.00;96824.41;5064774;28;20130;-74
2024/03/07 03:28:22;;;;;;;;;;;;;;;3.45;100.00;96820.66;5047503;28;19940;-74
2024/03/07 03:30:49;;;;;;;;;;;;;;;3.50;100.00;96824.53;5030426;28;19954;-74
2024/03/07 03:33:15;;;;;;;;;;;;;;;3.52;100.00;96815.63;5064589;28;19936;-74
2024/03/07 03:35:41;;;;;;;;;;;;;;;3.55;100.00;96820.50;5064573;28;19994;-74
2024/03/07 03:38:07;;;;;;;;;;;;;;;3.56;100.00;96816.91;5046605;28;19975;-73
2024/03/07 03:40:34;;;;;;;;;;;;;;;3.57;100.00;96821.16;5064567;28;19943;-73
2024/03/07 03:43:00;;;;;;;;;;;;;;;3.57;100.00;96818.56;5064432;28;19938;-74
2024/03/07 03:45:26;;;;;;;;;;;;;;;3.57;100.00;96820.31;5047343;28;19949;-72
2024/03/07 03:47:53;;;;;;;;;;;;;;;3.58;100.00;96812.38;5064903;28;20133;-73
2024/03/07 03:50:19;;;;;;;;;;;;;;;3.58;100.00;96811.56;5064850;28;19940;-73
2024/03/07 03:52:45;;;;;;;;;;;;;;;3.57;100.00;96815.97;5064285;28;19935;-72
2024/03/07 03:55:11;;;;;;;;;;;;;;;3.57;100.00;96812.53;5047201;28;19944;-72
2024/03/07 03:57:41;;;;;;;;;;;;;;;3.57;100.00;96815.97;5046365;28;19945;-72
2024/03/07 04:00:17;;;;;;;;;;;;;;;3.55;100.00;96815.31;5064695;28;19945;-85
2024/03/07 04:02:43;;;;;;;;;;;;;;;3.51;100.00;96814.03;5064715;28;19969;-68
2024/03/07 04:05:10;;;;;;;;;;;;;;;3.47;100.00;96807.53;5064588;28;19943;-69
2024/03/07 04:07:37;;;;;;;;;;;;;;;3.45;100.00;96815.47;5030463;28;19938;-69
2024/03/07 04:10:03;;;;;;;;;;;;;;;3.44;100.00;96802.66;5064801;28;19939;-69
2024/03/07 04:12:29;;;;;;;;;;;;;;;3.42;100.00;96808.03;5064471;28;19943;-69
2024/03/07 04:14:55;;;;;;;;;;;;;;;3.43;100.00;96811.44;5063949;28;19935;-69
2024/03/07 04:17:21;;;;;;;;;;;;;;;3.40;100.00;96803.97;5063971;28;20231;-73
2024/03/07 04:19:48;;;;;;;;;;;;;;;3.38;100.00;96808.50;5030307;28;19964;-69
2024/03/07 04:22:14;;;;;;;;;;;;;;;3.35;100.00;96801.88;5046759;28;19944;-86
2024/03/07 04:24:40;;;;;;;;;;;;;;;3.36;100.00;96803.50;5046748;28;19937;-86
2024/03/07 04:27:06;;;;;;;;;;;;;;;3.36;100.00;96797.50;5046030;28;19943;-86
2024/03/07 04:29:35;;;;;;;;;;;;;;;3.37;100.00;96799.94;5045258;28;19945;-86
2024/03/07 04:32:02;;;;;;;;;;;;;;;3.39;100.00;96804.97;5046146;28;19937;-86
2024/03/07 04:34:30;;;;;;;;;;;;;;;3.40;100.00;96799.63;5030271;28;20219;-86
2024/03/07 04:37:03;;;;;;;;;;;;;;;3.38;100.00;96798.13;5046170;28;19962;-84
2024/03/07 04:39:32;;;;;;;;;;;;;;;3.31;100.00;96799.78;5064228;28;19961;-74
2024/03/07 04:42:02;;;;;;;;;;;;;;;3.29;100.00;96792.16;5063617;28;19945;-74
2024/03/07 04:44:31;;;;;;;;;;;;;;;3.22;100.00;96796.38;5063675;28;19932;-74
2024/03/07 04:46:57;;;;;;;;;;;;;;;3.18;100.00;96795.09;5064168;28;19936;-74
2024/03/07 04:49:23;;;;;;;;;;;;;;;3.16;100.00;96799.63;5063934;28;20095;-74
2024/03/07 04:51:53;;;;;;;;;;;;;;;3.16;100.00;96799.63;5063583;28;19936;-74
2024/03/07 04:54:19;;;;;;;;;;;;;;;3.17;100.00;96803.81;5046574;28;19944;-72
2024/03/07 04:56:46;;;;;;;;;;;;;;;3.19;100.00;96804.47;5063584;28;19949;-70
2024/03/07 04:59:12;;;;;;;;;;;;;;;3.20;100.00;96803.50;5029122;28;19963;-72
2024/03/07 05:01:38;;;;;;;;;;;;;;;3.24;100.00;96804.81;5064312;28;19947;-72
2024/03/07 05:04:04;;;;;;;;;;;;;;;3.21;100.00;96800.75;5063984;28;19934;-72
2024/03/07 05:06:33;;;;;;;;;;;;;;;3.18;100.00;96800.25;5063477;28;19935;-72
2024/03/07 05:09:01;;;;;;;;;;;;;;;3.16;100.00;96804.81;5063368;28;19950;-73
2024/03/07 05:11:27;;;;;;;;;;;;;;;3.11;100.00;96805.28;5063393;28;19938;-72
2024/03/07 05:13:53;;;;;;;;;;;;;;;3.04;100.00;96807.72;5063387;28;20017;-71
2024/03/07 05:16:19;;;;;;;;;;;;;;;3.00;100.00;96797.81;5046536;28;20200;-68
2024/03/07 05:18:46;;;;;;;;;;;;;;;2.94;100.00;96811.41;5063250;28;19956;-69
2024/03/07 05:23:57;;;;;;;;;;;;;;;2.95;100.00;96805.28;5063850;28;20136;-69
2024/03/07 05:26:23;;;;;;;;;;;;;;;2.95;100.00;96800.91;5063260;28;20143;-69
2024/03/07 05:28:49;;;;;;;;;;;;;;;2.97;100.00;96798.97;5029043;28;20223;-69
2024/03/07 05:31:17;;;;;;;;;;;;;;;2.96;100.00;96799.94;5046353;28;19939;-69
2024/03/07 05:33:44;;;;;;;;;;;;;;;2.90;100.00;96794.56;5045538;28;19938;-83
2024/03/07 05:36:16;;;;;;;;;;;;;;;2.85;100.00;96803.63;5045766;28;20105;-83
2024/03/07 05:38:45;;;;;;;;;;;;;;;2.83;100.00;96795.25;5064000;28;19959;-83
2024/03/07 05:41:12;;;;;;;;;;;;;;;2.83;100.00;96799.59;5048310;28;19965;-83
2024/03/07 05:43:38;;;;;;;;;;;;;;;2.80;100.00;96795.53;5066354;28;20228;-83
2024/03/07 05:46:06;;;;;;;;;;;;;;;2.76;100.00;96804.59;5066701;28;19939;-83
2024/03/07 05:48:31;;;;;;;;;;;;;;;2.75;100.00;96799.56;5066654;28;19928;-83
2024/03/07 05:50:58;;;;;;;;;;;;;;;2.72;100.00;96798.13;5067067;28;20287;-70
2024/03/07 05:53:24;;;;;;;;;;;;;;;2.71;100.00;96800.88;5048865;28;19939;-70
2024/03/07 05:55:50;;;;;;;;;;;;;;;2.67;100.00;96805.56;5049435;28;19947;-70
2024/03/07 05:58:16;;;;;;;;;;;;;;;2.65;100.00;96794.56;5049363;28;19953;-70
2024/03/07 06:00:52;;;;;;;;;;;;;;;2.64;100.00;96791.13;5048783;28;19939;-70
2024/03/07 06:03:21;;;;;;;;;;;;;;;2.63;100.00;96796.50;5067179;28;20111;-70
2024/03/07 06:05:50;;;;;;;;;;;;;;;2.57;100.00;96789.38;5048564;28;20125;-70
2024/03/07 06:08:17;;;;;;;;;;;;;;;2.50;100.00;96791.78;5066731;28;19963;-73
2024/03/07 06:10:44;;;;;;;;;;;;;;;2.44;100.00;96793.22;5066807;28;19934;-69
2024/03/07 06:13:11;;;;;;;;;;;;;;;2.40;100.00;96791.91;5066136;28;19948;-70
2024/03/07 06:15:38;;;;;;;;;;;;;;;2.37;100.00;96789.66;5066984;28;19976;-70
2024/03/07 06:18:04;;;;;;;;;;;;;;;2.32;100.00;96804.03;5066557;28;19941;-70
2024/03/07 06:20:30;;;;;;;;;;;;;;;2.30;100.00;96799.00;5066033;28;19946;-70
2024/03/07 06:22:57;;;;;;;;;;;;;;;2.33;100.00;96797.88;5032478;28;20263;-70
2024/03/07 06:25:34;;;;;;;;;;;;;;;2.39;100.00;96794.66;5065898;28;19936;-70
2024/03/07 06:28:10;;;;;;;;;;;;;;;2.44;100.00;96787.25;5066467;28;19941;-82
2024/03/07 06:30:37;;;;;;;;;;;;;;;2.59;100.00;96798.59;5032375;28;19945;-74
2024/03/07 06:33:03;;;;;;;;;;;;;;;2.80;100.00;96790.38;5032211;28;19940;-74
2024/03/07 06:35:29;;;;;;;;;;;;;;;3.00;100.00;96785.69;5047833;28;19939;-74
2024/03/07 06:37:55;;;;;;;;;;;;;;;3.18;100.00;96788.13;5047621;28;19969;-74
2024/03/07 06:40:22;;;;;;;;;;;;;;;3.34;100.00;96779.53;5065563;28;19958;-74
2024/03/07 06:42:48;;;;;;;;;;;;;;;3.43;100.00;96775.94;5065603;28;19937;-74
2024/03/07 06:45:15;;;;;;;;;;;;;;;3.55;100.00;96779.00;5048442;28;20229;-73
2024/03/07 06:47:41;;;;;;;;;;;;;;;3.69;100.00;96774.91;5065511;28;19940;-69
2024/03/07 06:50:09;;;;;;;;;;;;;;;3.80;100.00;96774.56;5065582;28;19937;-69
2024/03/07 06:52:35;;;;;;;;;;;;;;;3.87;100.00;96779.91;5030538;28;20151;-68
2024/03/07 06:55:03;;;;;;;;;;;;;;;3.95;100.00;96794.59;5047655;28;19935;-68
2024/03/07 06:57:29;;;;;;;;;;;;;;;4.06;100.00;96776.91;5031710;28;19939;-68
2024/03/07 06:59:55;;;;;;;;;;;;;;;4.19;100.00;96781.53;5065230;28;20162;-69
2024/03/07 07:02:21;;;;;;;;;;;;;;;4.37;100.00;96770.13;5065248;28;19939;-72
2024/03/07 07:04:47;;;;;;;;;;;;;;;4.55;100.00;96785.44;5065232;28;19935;-72
2024/03/07 07:07:15;;;;;;;;;;;;;;;4.74;100.00;96778.97;5046906;28;20874;-73
2024/03/07 07:09:41;;;;;;;;;;;;;;;4.91;100.00;96777.88;5065074;28;19959;-73
2024/03/07 07:12:07;;;;;;;;;;;;;;;5.09;100.00;96769.78;5065013;28;19949;-73
2024/03/07 07:14:35;;;;;;;;;;;;;;;5.32;100.00;96774.16;5065553;28;19933;-73
2024/03/07 07:17:01;;;;;;;;;;;;;;;5.53;100.00;96747.47;5064933;28;20120;-73
2024/03/07 07:19:27;;;;;;;;;;;;;;;5.72;100.00;96749.53;5047188;28;19957;-73
2024/03/07 07:21:54;;;;;;;;;;;;;;;5.96;100.00;96745.06;5065650;28;20207;-81
2024/03/07 07:24:21;;;;;;;;;;;;;;;6.10;100.00;96732.00;5064799;28;19942;-73
2024/03/07 07:26:47;;;;;;;;;;;;;;;6.14;100.00;96726.47;5065246;28;20099;-72
2024/03/07 07:29:13;;;;;;;;;;;;;;;6.13;100.00;96715.22;5065454;28;19940;-73
2024/03/07 07:31:39;;;;;;;;;;;;;;;5.87;100.00;96720.88;5065486;28;19935;-73
2024/03/07 07:34:06;;;;;;;;;;;;;;;5.60;100.00;96751.75;5064685;28;19944;-73
2024/03/07 07:36:32;;;;;;;;;;;;;;;5.47;100.00;96754.97;5064840;28;19973;-73
2024/03/07 07:38:58;;;;;;;;;;;;;;;5.36;100.00;96747.63;5064488;28;20247;-73
2024/03/07 07:41:24;;;;;;;;;;;;;;;5.16;100.00;96775.09;5064541;28;19961;-75
2024/03/07 07:43:50;;;;;;;;;;;;;;;5.00;100.00;96758.66;5064487;28;20220;-73
2024/03/07 07:46:16;;;;;;;;;;;;;;;4.80;100.00;96775.69;5047174;28;19942;-73
2024/03/07 07:48:42;;;;;;;;;;;;;;;4.62;100.00;96766.41;5064918;28;19931;-73
2024/03/07 07:51:08;;;;;;;;;;;;;;;4.55;100.00;96769.84;5064355;28;19981;-73
2024/03/07 07:53:34;;;;;;;;;;;;;;;4.52;100.00;96775.41;5064309;28;19942;-73
2024/03/07 07:56:00;;;;;;;;;;;;;;;4.41;100.00;96764.41;5064193;28;19935;-73
2024/03/07 07:58:26;;;;;;;;;;;;;;;4.19;100.00;96759.97;5064427;28;19934;-73
2024/03/07 08:00:52;;;;;;;;;;;;;;;4.05;100.00;96770.09;5064432;28;19946;-74
2024/03/07 08:03:18;;;;;;;;;;;;;;;3.99;100.00;96775.13;5063243;28;19939;-74
2024/03/07 08:05:44;;;;;;;;;;;;;;;3.96;100.00;96775.47;5046455;28;20006;-74
2024/03/07 08:08:16;;;;;;;;;;;;;;;4.00;100.00;96776.75;5063931;28;20223;-74
2024/03/07 08:10:42;;;;;;;;;;;;;;;4.13;100.00;96771.84;5064618;28;19941;-74
2024/03/07 08:13:10;;;;;;;;;;;;;;;4.39;100.00;96768.97;5063965;28;20219;-74
2024/03/07 08:15:36;;;;;;;;;;;;;;;4.72;100.00;96758.34;5064247;28;20224;-73
2024/03/07 08:18:08;;;;;;;;;;;;;;;4.84;100.00;96762.19;5063953;28;19982;-69
2024/03/07 08:20:34;;;;;;;;;;;;;;;4.77;100.00;96745.69;5064439;28;19957;-74
2024/03/07 08:23:00;;;;;;;;;;;;;;;4.67;100.00;96756.28;5063081;28;19945;-73
2024/03/07 08:25:27;;;;;;;;;;;;;;;4.60;100.00;96744.97;5046502;28;19938;-73
2024/03/07 08:27:54;;;;;;;;;;;;;;;4.54;100.00;96753.47;5063791;28;19945;-73
2024/03/07 08:30:20;;;;;;;;;;;;;;;4.46;100.00;96749.13;5063779;28;19938;-74
2024/03/07 08:32:54;;;;;;;;;;;;;;;4.40;100.00;96760.19;5064308;28;19941;-73
2024/03/07 08:35:20;;;;;;;;;;;;;;;4.37;100.00;96750.16;5064557;28;19941;-73
2024/03/07 08:37:52;;;;;;;;;;;;;;;4.30;100.00;96732.81;5063593;28;19971;-73
2024/03/07 08:40:19;;;;;;;;;;;;;;;4.20;100.00;96727.84;5046463;28;19957;-74
2024/03/07 08:42:50;;;;;;;;;;;;;;;4.05;100.00;96746.75;5063984;28;19930;-73
2024/03/07 08:45:19;;;;;;;;;;;;;;;4.10;100.00;96746.22;5045954;28;19995;-73
2024/03/07 08:47:46;;;;;;;;;;;;;;;4.15;100.00;96738.72;5064173;28;19934;-74
2024/03/07 08:50:13;;;;;;;;;;;;;;;4.17;100.00;96743.75;5046156;28;19935;-74
2024/03/07 08:52:39;;;;;;;;;;;;;;;4.20;100.00;96731.25;5045761;28;19941;-74
2024/03/07 08:55:09;;;;;;;;;;;;;;;4.22;100.00;96744.06;5064304;28;19942;-73
2024/03/07 08:57:36;;;;;;;;;;;;;;;4.23;100.00;96756.06;5063448;28;19952;-70
2024/03/07 09:00:08;;;;;;;;;;;;;;;4.22;100.00;96751.84;5046517;28;19959;-70
2024/03/07 09:02:34;;;;;;;;;;;;;;;4.23;100.00;96751.69;5064016;28;19945;-70
2024/03/07 09:05:01;;;;;;;;;;;;;;;4.23;100.00;96750.88;5045868;28;19939;-70
2024/03/07 09:07:29;;;;;;;;;;;;;;;4.24;100.00;96749.88;5064228;28;19939;-70
2024/03/07 09:09:55;;;;;;;;;;;;;;;4.24;100.00;96750.72;5063326;28;19952;-70
2024/03/07 09:12:21;;;;;;;;;;;;;;;4.24;100.00;96755.06;5046053;28;19939;-85
2024/03/07 09:14:47;;;;;;;;;;;;;;;4.21;100.00;96750.22;5065018;28;20105;-85
2024/03/07 09:17:13;;;;;;;;;;;;;;;4.22;100.00;96747.47;5016315;28;19945;-84
2024/03/07 09:19:39;;;;;;;;;;;;;;;4.24;100.00;96749.88;5067192;28;20022;-84
2024/03/07 09:22:07;;;;;;;;;;;;;;;4.25;100.00;96751.50;5050028;28;20006;-84
2024/03/07 09:24:34;;;;;;;;;;;;;;;4.21;100.00;96758.81;5049352;28;19945;-84
2024/03/07 09:27:00;;;;;;;;;;;;;;;4.18;100.00;96745.38;5049485;28;19949;-84
2024/03/07 09:29:27;;;;;;;;;;;;;;;4.19;100.00;96745.19;5067913;28;20110;-84
2024/03/07 09:31:53;;;;;;;;;;;;;;;4.17;100.00;96736.78;5049383;28;19936;-74
2024/03/07 09:34:20;;;;;;;;;;;;;;;4.13;100.00;96743.28;5049844;28;19947;-70
2024/03/07 09:36:47;;;;;;;;;;;;;;;4.12;100.00;96739.09;5049248;28;19970;-70
2024/03/07 09:39:13;;;;;;;;;;;;;;;4.15;100.00;96737.94;5033235;28;20251;-70
2024/03/07 09:41:42;;;;;;;;;;;;;;;4.18;100.00;96737.59;5049817;28;19933;-70
2024/03/07 09:44:22;;;;;;;;;;;;;;;4.21;100.00;96742.44;5049003;28;19939;-70
2024/03/07 09:46:49;;;;;;;;;;;;;;;4.14;100.00;96728.53;5049512;28;19935;-70
2024/03/07 09:49:15;;;;;;;;;;;;;;;4.16;100.00;96739.53;5048968;28;19940;-73
2024/03/07 09:51:43;;;;;;;;;;;;;;;4.15;100.00;96732.75;5066650;28;19940;-73
2024/03/07 09:54:09;;;;;;;;;;;;;;;4.11;100.00;96726.28;5066484;28;20120;-74
2024/03/07 09:56:37;;;;;;;;;;;;;;;4.04;100.00;96734.72;5066475;28;20134;-74
2024/03/07 09:59:09;;;;;;;;;;;;;;;3.98;100.00;96734.59;5066426;28;19937;-74
2024/03/07 10:01:35;;;;;;;;;;;;;;;3.90;100.00;96743.22;5065277;28;19945;-74
2024/03/07 10:04:11;;;;;;;;;;;;;;;3.86;100.00;96744.53;5066269;28;19959;-73
2024/03/07 10:06:39;;;;;;;;;;;;;;;3.85;100.00;96741.13;5066886;28;19935;-69
2024/03/07 10:09:06;;;;;;;;;;;;;;;3.81;100.00;96745.03;5049033;28;20136;-69
2024/03/07 10:11:32;;;;;;;;;;;;;;;3.82;100.00;96741.50;5032643;28;19946;-74
2024/03/07 10:13:58;;;;;;;;;;;;;;;3.80;100.00;96733.06;5031769;28;19941;-74
2024/03/07 10:16:24;;;;;;;;;;;;;;;3.86;100.00;96742.78;5031754;28;19939;-73
2024/03/07 10:18:50;;;;;;;;;;;;;;;3.94;100.00;96736.72;5048674;28;19927;-74
2024/03/07 10:21:19;;;;;;;;;;;;;;;3.96;100.00;96732.19;5066420;28;20071;-75
2024/03/07 10:23:45;;;;;;;;;;;;;;;3.92;100.00;96736.09;5065294;28;19940;-73
2024/03/07 10:26:11;;;;;;;;;;;;;;;3.92;100.00;96743.06;5065032;28;19935;-68
2024/03/07 10:28:38;;;;;;;;;;;;;;;3.98;100.00;96732.81;5048633;28;20171;-83
2024/03/07 10:31:09;;;;;;;;;;;;;;;3.96;100.00;96726.97;5065838;28;19957;-82
2024/03/07 10:33:35;;;;;;;;;;;;;;;3.89;100.00;96730.44;5048676;28;20113;-84
2024/03/07 10:36:01;;;;;;;;;;;;;;;3.94;100.00;96736.72;5047766;28;19950;-83
2024/03/07 10:38:27;;;;;;;;;;;;;;;4.03;100.00;96732.31;5064658;28;19970;-83
2024/03/07 10:40:55;;;;;;;;;;;;;;;4.10;100.00;96727.25;5065584;28;19957;-83
2024/03/07 10:43:21;;;;;;;;;;;;;;;4.12;100.00;96726.09;5066397;28;19946;-73
2024/03/07 10:45:48;;;;;;;;;;;;;;;4.12;100.00;96726.09;5047836;28;19937;-74
2024/03/07 10:48:16;;;;;;;;;;;;;;;4.17;100.00;96731.59;5048339;28;19951;-73
2024/03/07 10:50:47;;;;;;;;;;;;;;;4.23;100.00;96728.31;5047520;28;19957;-74
2024/03/07 10:53:24;;;;;;;;;;;;;;;4.27;100.00;96729.59;5065790;28;19932;-73
2024/03/07 10:55:59;;;;;;;;;;;;;;;4.27;100.00;96727.00;5066175;28;19938;-73
2024/03/07 10:58:38;;;;;;;;;;;;;;;4.32;100.00;96725.66;5065324;28;19931;-74
2024/03/07 11:01:05;;;;;;;;;;;;;;;4.37;100.00;96720.78;5065977;28;19978;-74
2024/03/07 11:03:32;;;;;;;;;;;;;;;4.42;100.00;96714.09;5065233;28;19944;-82
2024/03/07 11:06:00;;;;;;;;;;;;;;;4.45;100.00;96715.53;5030816;28;19948;-72
2024/03/07 11:08:27;;;;;;;;;;;;;;;4.45;100.00;96708.56;5046897;28;20138;-72
2024/03/07 11:10:53;;;;;;;;;;;;;;;4.46;100.00;96710.16;5065558;28;19934;-72
2024/03/07 11:13:19;;;;;;;;;;;;;;;4.47;100.00;96711.78;5031425;28;20004;-72
2024/03/07 11:15:47;;;;;;;;;;;;;;;4.53;100.00;96707.69;5065244;28;19938;-72
2024/03/07 11:18:13;;;;;;;;;;;;;;;4.55;100.00;96699.72;5064952;28;19940;-71
2024/03/07 11:20:39;;;;;;;;;;;;;;;4.56;100.00;96709.13;5046984;28;19965;-69
2024/03/07 11:23:44;;;;;;;;;;;;;;;4.59;100.00;96698.41;5065182;28;20229;-75
2024/03/07 11:26:11;;;;;;;;;;;;;;;4.62;100.00;96690.25;5023300;28;19939;-73
2024/03/07 11:28:39;;;;;;;;;;;;;;;4.64;100.00;96686.50;5023218;28;19931;-73
2024/03/07 11:31:14;;;;;;;;;;;;;;;4.63;100.00;96690.06;5043324;28;19944;-73
2024/03/07 11:33:40;;;;;;;;;;;;;;;4.61;100.00;96686.03;5065140;28;19934;-73
2024/03/07 11:36:16;;;;;;;;;;;;;;;4.60;100.00;96685.25;5064406;28;19957;-73
2024/03/07 11:38:51;;;;;;;;;;;;;;;4.64;100.00;96685.69;5064929;28;19941;-72
2024/03/07 11:41:20;;;;;;;;;;;;;;;4.68;100.00;96681.75;5064894;28;19954;-73
2024/03/07 11:43:46;;;;;;;;;;;;;;;4.68;100.00;96663.56;5047307;28;19953;-73
2024/03/07 11:46:16;;;;;;;;;;;;;;;4.66;100.00;96671.56;5046586;28;19941;-73
2024/03/07 11:48:42;;;;;;;;;;;;;;;4.59;100.00;96660.22;5065170;28;19934;-73
2024/03/07 11:51:13;;;;;;;;;;;;;;;4.52;100.00;96655.94;5064316;28;19931;-72
2024/03/07 11:53:38;;;;;;;;;;;;;;;4.51;100.00;96669.88;5065076;28;20115;-73
2024/03/07 11:56:09;;;;;;;;;;;;;;;4.44;100.00;96654.19;5064335;28;19999;-73
2024/03/07 11:58:41;;;;;;;;;;;;;;;4.41;100.00;96662.31;5064761;28;19936;-73
2024/03/07 12:01:13;;;;;;;;;;;;;;;4.36;100.00;96662.84;5064881;28;19962;-70
2024/03/07 12:03:39;;;;;;;;;;;;;;;4.28;100.00;96655.09;5046325;28;19939;-70
2024/03/07 12:06:05;;;;;;;;;;;;;;;4.26;100.00;96665.69;5046361;28;19940;-70
2024/03/07 12:08:31;;;;;;;;;;;;;;;4.33;100.00;96665.78;5064493;28;19951;-70
2024/03/07 12:10:57;;;;;;;;;;;;;;;4.38;100.00;96647.09;5064052;28;19942;-71
2024/03/07 12:13:24;;;;;;;;;;;;;;;4.37;100.00;96653.28;5046667;28;19945;-70
2024/03/07 12:15:51;;;;;;;;;;;;;;;4.40;100.00;96661.50;5046075;28;19937;-73
2024/03/07 12:18:18;;;;;;;;;;;;;;;4.38;100.00;96653.09;5064127;28;19940;-70
2024/03/07 12:20:50;;;;;;;;;;;;;;;4.45;100.00;96656.63;5046610;28;19955;-69
2024/03/07 12:23:19;;;;;;;;;;;;;;;4.51;100.00;96646.50;5064674;28;20105;-68
2024/03/07 12:25:45;;;;;;;;;;;;;;;4.46;100.00;96634.84;5046555;28;19940;-69
2024/03/07 12:28:12;;;;;;;;;;;;;;;4.38;100.00;96634.91;5046900;28;20150;-68
2024/03/07 12:30:51;;;;;;;;;;;;;;;4.32;100.00;96645.19;5045930;28;19943;-69
2024/03/07 12:33:18;;;;;;;;;;;;;;;4.30;100.00;96640.16;5063692;28;19942;-69
2024/03/07 12:35:44;;;;;;;;;;;;;;;4.32;100.00;96656.38;5064542;28;19936;-74
2024/03/07 12:38:15;;;;;;;;;;;;;;;4.42;100.00;96649.16;5063596;28;19970;-74
2024/03/07 12:40:48;;;;;;;;;;;;;;;4.56;100.00;96652.00;5063941;28;19962;-74
2024/03/07 12:43:18;;;;;;;;;;;;;;;4.73;100.00;96644.88;5063632;28;19941;-74
2024/03/07 12:45:50;;;;;;;;;;;;;;;4.89;100.00;96639.50;5064178;28;19934;-74
2024/03/07 12:48:21;;;;;;;;;;;;;;;5.05;100.00;96628.97;5045804;28;19947;-74
2024/03/07 12:50:53;;;;;;;;;;;;;;;5.17;100.00;96620.75;5066949;28;19940;-74